RORK(METAR)
02/18 15:00
RORK 180600Z 08014KT 9999 FEW037 OVC047 21/15 Q1021 RMK A3016=
戻る
トップページへ戻る
IMOC Co,.Ltd.